Central Oregon RPC :: DREWSEY B

liberation: 2021-09-25  07:30     latitude: 43.807153     longitude: -118.378439 94 birds
# LOFT PRING MILES ARRIVAL SPEED ToWin
1 ROCKY TOP AU21-CORP-0749 137.131 2021-09-25 10:21:03.211 1410.961 00:00:00
2 ROCKY TOP AU21-CORP-0778 137.131 2021-09-25 10:21:03.596 1410.908 00:00:00
3 ROCKY TOP AU21-CORP-0711 137.131 2021-09-25 10:21:04.253 1410.818 00:00:01
4 ROCKY TOP AU21-CORP-0779 137.131 2021-09-25 10:21:04.507 1410.783 00:00:01
5 ROCKY TOP AU21-CORP-0709 137.131 2021-09-25 10:21:05.036 1410.711 00:00:02
6 RUETER FAMILY LOFT AU21-CORP-824 144.173 2021-09-25 10:30:09.298 1408.478 00:00:19
7 ROCKY TOP AU21-CORP-0714 137.131 2021-09-25 10:21:43.764 1405.408 00:00:41
8 ROCKY TOP AU21-ARPU-11217 137.131 2021-09-25 10:21:49.188 1404.669 00:00:46
9 ROCKY TOP AU21-CORP-0768 137.131 2021-09-25 10:21:50.882 1404.438 00:00:48
10 ROCKY TOP AU21-CORP-0726 137.131 2021-09-25 10:21:52.232 1404.254 00:00:49
11 ROCKY TOP AU21-CORP-0763 137.131 2021-09-25 10:21:54.570 1403.936 00:00:51
12 RUETER FAMILY LOFT AU21-CORP-828 144.173 2021-09-25 10:30:45.623 1403.761 00:00:55
13 ROCKY TOP AU21-CORP-0725 137.131 2021-09-25 10:22:00.515 1403.127 00:00:57
14 ROCKY TOP AU21-CORP-0757 137.131 2021-09-25 10:22:00.878 1403.078 00:00:58
15 RUETER FAMILY LOFT AU21-CORP-860 144.173 2021-09-25 10:32:31.451 1390.196 00:02:41
16 RUETER FAMILY LOFT AU21-CORP-884 144.173 2021-09-25 10:32:34.263 1389.839 00:02:44
17 RUETER FAMILY LOFT AU21-CORP-850 144.173 2021-09-25 10:32:35.463 1389.687 00:02:45
18 RUETER FAMILY LOFT AU21-CORP-891 144.173 2021-09-25 10:32:36.206 1389.593 00:02:46
19 RUETER FAMILY LOFT AU21-CORP-813 144.173 2021-09-25 10:32:37.068 1389.483 00:02:47
20 RUETER FAMILY LOFT AU21-CORP-836 144.173 2021-09-25 10:32:37.717 1389.401 00:02:47
21 RUETER FAMILY LOFT AU21-CORP-812 144.173 2021-09-25 10:32:39.521 1389.172 00:02:49
22 RUETER FAMILY LOFT AU21-CORP-942 144.173 2021-09-25 10:32:44.167 1388.584 00:02:54
23 RUETER FAMILY LOFT AU21-CORP-861 144.173 2021-09-25 10:32:47.782 1388.126 00:02:58
24 RUETER FAMILY LOFT AU21-CORP-881 144.173 2021-09-25 10:32:55.913 1387.098 00:03:06
25 RUETER FAMILY LOFT AU21-CORP-892 144.173 2021-09-25 10:34:10.911 1377.684 00:04:21
26 RUETER FAMILY LOFT AU21-CORP-839 144.173 2021-09-25 10:34:13.091 1377.412 00:04:23
27 RUETER FAMILY LOFT AU21-CORP-887 144.173 2021-09-25 10:34:19.800 1376.577 00:04:30
28 RUETER FAMILY LOFT AU21-CORP-822 144.173 2021-09-25 10:34:28.630 1375.479 00:04:38
29 RUETER FAMILY LOFT AU21-CORP-895 144.173 2021-09-25 10:34:33.024 1374.933 00:04:43
30 RUETER FAMILY LOFT AU21-CORP-940 144.173 2021-09-25 10:34:38.024 1374.312 00:04:48
31 RUETER FAMILY LOFT AU21-CORP-809 144.173 2021-09-25 10:34:41.251 1373.912 00:04:51
32 RUETER FAMILY LOFT AU21-CORP-919 144.173 2021-09-25 10:34:58.760 1371.744 00:05:08
33 RUETER FAMILY LOFT AU21-CORP-915 144.173 2021-09-25 10:39:47.518 1336.961 00:09:57
34 RUETER FAMILY LOFT AU21-CORP-920 144.173 2021-09-25 10:39:48.112 1336.891 00:09:58
35 whistling wings AU21-CORP-0938 145.515 2021-09-25 10:42:28.644 1330.578 00:10:58
36 STEELE LOFT AU21-CORP-0104 146.385 2021-09-25 10:44:00.557 1327.964 00:11:25
37 STEELE LOFT AU21-CORP-0121 146.385 2021-09-25 10:44:03.429 1327.636 00:11:28
38 STEELE LOFT AU21-BORD-21047 146.385 2021-09-25 10:44:04.459 1327.519 00:11:29
39 STEELE LOFT AU21-CORP-0169 146.385 2021-09-25 10:44:12.218 1326.635 00:11:36
40 STEELE LOFT AU21-CORP-0128 146.385 2021-09-25 10:44:15.828 1326.224 00:11:40
41 whistling wings AU21-CORP-0254 145.515 2021-09-25 10:44:00.327 1320.098 00:12:30
42 TOPIGEONUSA AU21-JEDD-11820 145.351 2021-09-25 10:44:25.046 1315.813 00:13:07
43 whistling wings AU21-CORP-0939 145.515 2021-09-25 10:51:57.421 1268.122 00:20:27
44 whistling wings AU21-CORP-0941 145.515 2021-09-25 10:51:59.431 1267.912 00:20:29
45 whistling wings AU21-CORP-1101 145.515 2021-09-25 10:52:01.117 1267.735 00:20:30
46 whistling wings AU21-CORP-0928 145.515 2021-09-25 10:52:04.442 1267.388 00:20:34
47 ROCKY TOP AU21-ARPU-11206 137.131 2021-09-25 10:41:29.578 1260.359 00:20:26
48 whistling wings AU21-CORP-0946 145.515 2021-09-25 10:53:13.209 1260.240 00:21:42
49 whistling wings AU21-CORP-0767 145.515 2021-09-25 10:53:18.813 1259.661 00:21:48
50 RUETER FAMILY LOFT AU21-CORP-817 144.173 2021-09-25 10:56:11.126 1230.661 00:26:21
51 STEELE LOFT AU21-CORP-0111 146.385 2021-09-25 11:01:31.505 1217.999 00:28:56
52 ROCKY TOP AU21-CORP-0746 137.131 2021-09-25 10:48:39.283 1214.922 00:27:36
53 RUETER FAMILY LOFT AU21-CORP-949 144.173 2021-09-25 10:59:45.761 1209.674 00:29:55
54 whistling wings AU21-CORP-1102 145.515 2021-09-25 11:08:05.413 1174.313 00:36:35
55 whistling wings AU21-CORP-0253 145.515 2021-09-25 11:08:15.443 1173.413 00:36:45
56 whistling wings AU21-CORP-0265 145.515 2021-09-25 11:08:20.423 1172.967 00:36:50
57 LUCAS CRAMER AU21-CORP-459 145.627 2021-09-25 11:09:02.614 1170.101 00:37:24
58 ROCKY TOP AU21-CORP-0756 137.131 2021-09-25 11:01:22.168 1141.839 00:40:19
59 RUETER FAMILY LOFT AU21-CORP-896 144.173 2021-09-25 11:14:13.637 1131.639 00:44:23
60 RUETER FAMILY LOFT AU21-CORP-868 144.173 2021-09-25 11:14:27.126 1130.506 00:44:37
61 RUETER FAMILY LOFT AU21-CORP-888 144.173 2021-09-25 11:15:49.301 1123.649 00:45:59
62 ROCKY TOP AU21-CORP-0744 137.131 2021-09-25 11:06:16.761 1115.917 00:45:14
63 LUCAS CRAMER AU21-CORP-435 145.627 2021-09-25 11:20:58.839 1109.630 00:49:20
64 STEELE LOFT AU21-CORP-0182 146.385 2021-09-25 11:26:35.482 1088.955 00:54:00
65 STEELE LOFT AU21-JEDD-11904 146.385 2021-09-25 11:26:35.879 1088.924 00:54:00
66 whistling wings AU21-CORP-0781 145.515 2021-09-25 11:36:44.451 1037.956 01:05:14
67 LUCAS CRAMER AU21-CORP-465 145.627 2021-09-25 11:37:54.728 1033.846 01:06:16
68 LUCAS CRAMER AU21-CORP-453 145.627 2021-09-25 11:38:00.525 1033.444 01:06:21
69 STEELE LOFT AU21-CORP-0162 146.385 2021-09-25 11:53:59.551 975.927 01:21:24
70 RUETER FAMILY LOFT AU21-CORP-815 144.173 2021-09-25 11:53:17.808 963.720 01:23:28
71 STEELE LOFT AU21-CORP-0109 146.385 2021-09-25 13:22:23.542 731.109 02:49:48
72 ROCKY TOP AU21-PNW-3505 137.131 2021-09-25 13:16:13.185 697.100 02:55:10
73 RUETER FAMILY LOFT AU21-CORP-807 144.173 2021-09-25 14:20:13.413 618.551 03:50:23
74 LUCAS CRAMER AU21-CORP-461 145.627 2021-09-25 14:55:48.006 574.928 04:24:09
75 LUCAS CRAMER AU21-CORP-464 145.627 2021-09-25 15:32:52.000 530.795 05:01:13
76 TOPIGEONUSA AU21-MDC-1219 145.351 2021-09-25 16:05:00.482 496.724 05:33:42
77 RUETER FAMILY LOFT AU21-CORP-966 144.173 2021-09-25 17:07:00.299 439.761 06:37:10
78 LUCAS CRAMER AU21-CORP-408 145.627 2021-09-25 18:47:36.498 378.247 08:15:57
79 STEELE LOFT AU21-CORP-0120 146.385 2021-09-26 08:36:52.753 304.507 11:03:29
80 LUCAS CRAMER AU21-CORP-444 145.627 2021-09-26 08:54:43.462 296.673 11:22:16
81 ROCKY TOP AU21-JEDD-11824 137.131 2021-09-26 10:22:34.486 253.579 13:00:43
82 LUCAS CRAMER AU21-CORP-466 145.627 2021-09-27 03:20:29.068 172.884 21:40:52
LUCAS CRAMER AU21-CORP-411 0 0000-00-00 00:00:00.000 0.000 00:00:00
LUCAS CRAMER AU21-CORP-448 0 0000-00-00 00:00:00.000 0.000 00:00:00
ROCKY TOP AU21-CORP-0705 0 0000-00-00 00:00:00.000 0.000 00:00:00
ROCKY TOP AU21-CORP-0713 0 0000-00-00 00:00:00.000 0.000 00:00:00
ROCKY TOP AU21-CORP-0777 0 0000-00-00 00:00:00.000 0.000 00:00:00
STEELE LOFT AU21-CORP-0105 0 0000-00-00 00:00:00.000 0.000 00:00:00
STEELE LOFT AU21-CORP-0116 0 0000-00-00 00:00:00.000 0.000 00:00:00
STEELE LOFT AU21-CORP-0126 0 0000-00-00 00:00:00.000 0.000 00:00:00
STEELE LOFT AU21-CORP-0168 0 0000-00-00 00:00:00.000 0.000 00:00:00
TOPIGEONUSA AU21-CORP-0697 0 0000-00-00 00:00:00.000 0.000 00:00:00
TOPIGEONUSA AU21-JEDD-11899 0 0000-00-00 00:00:00.000 0.000 00:00:00
TOPIGEONUSA AU21-MDC-1225 0 0000-00-00 00:00:00.000 0.000 00:00:00